Time;durP1;ratioP1;P1;durP2;ratioP2;P2;SDS_P1;SDS_P2;PMS_P1;PMS_P2;Temp;Humidity;BMP_temperature;BMP_pressure;BME280_temperature;BME280_humidity;BME280_pressure;Samples;Min_cycle;Max_cycle;Signal;HPM_P1;HPM_P2
2024/02/26 00:01:52;;;;;;;7.80;6.00;;;3.70;99.90;;;;;;4965196;28;20202;-52
2024/02/26 00:04:19;;;;;;;9.57;6.57;;;3.70;99.90;;;;;;4963204;28;20225;-52
2024/02/26 00:06:46;;;;;;;8.53;7.27;;;3.70;99.90;;;;;;4949342;28;20206;-51
2024/02/26 00:09:13;;;;;;;8.83;6.70;;;3.80;99.90;;;;;;4960990;28;20213;-51
2024/02/26 00:11:40;;;;;;;9.13;7.10;;;3.70;99.90;;;;;;4956491;28;20264;-49
2024/02/26 00:14:07;;;;;;;8.87;7.53;;;3.50;99.90;;;;;;4935567;28;20241;-53
2024/02/26 00:16:35;;;;;;;7.87;6.73;;;3.50;99.90;;;;;;4964795;28;20256;-51
2024/02/26 00:19:02;;;;;;;9.70;7.67;;;3.50;99.90;;;;;;4960045;28;20292;-48
2024/02/26 00:21:29;;;;;;;9.07;6.97;;;3.60;99.90;;;;;;4946595;28;20313;-50
2024/02/26 00:23:56;;;;;;;7.30;6.50;;;3.60;99.90;;;;;;4962479;28;20746;-46
2024/02/26 00:26:23;;;;;;;8.13;7.30;;;3.60;99.90;;;;;;4951635;28;20507;-55
2024/02/26 00:28:49;;;;;;;9.47;7.33;;;3.50;99.90;;;;;;4938152;28;20242;-49
2024/02/26 00:31:17;;;;;;;9.80;7.20;;;3.50;99.90;;;;;;4960983;28;20253;-51
2024/02/26 00:33:45;;;;;;;8.47;7.23;;;3.40;99.90;;;;;;4961441;28;20189;-49
2024/02/26 00:36:13;;;;;;;8.30;7.20;;;3.30;99.90;;;;;;4964733;28;20199;-51
2024/02/26 00:38:40;;;;;;;7.67;6.77;;;3.20;99.90;;;;;;4945026;28;20584;-51
2024/02/26 00:41:07;;;;;;;7.60;6.80;;;3.20;99.90;;;;;;4964813;28;20213;-52
2024/02/26 00:43:34;;;;;;;8.23;6.70;;;3.20;99.90;;;;;;4935448;28;20222;-49
2024/02/26 00:46:01;;;;;;;8.80;6.67;;;3.10;99.90;;;;;;4957595;28;20236;-51
2024/02/26 00:48:27;;;;;;;8.00;7.03;;;3.00;99.90;;;;;;4963792;28;20280;-50
2024/02/26 00:50:55;;;;;;;8.43;6.83;;;3.00;99.90;;;;;;4962396;28;20249;-50
2024/02/26 00:53:24;;;;;;;7.60;6.60;;;3.00;99.90;;;;;;4948369;28;20563;-50
2024/02/26 00:55:51;;;;;;;7.93;6.63;;;3.00;99.90;;;;;;4960953;28;20632;-51
2024/02/26 00:58:18;;;;;;;7.37;6.13;;;3.00;99.90;;;;;;4955102;28;20269;-49
2024/02/26 01:00:45;;;;;;;9.13;6.93;;;2.90;99.90;;;;;;4934261;28;20781;-53
2024/02/26 01:03:13;;;;;;;8.73;6.83;;;2.90;99.90;;;;;;4963908;28;20221;-49
2024/02/26 01:05:39;;;;;;;8.33;6.83;;;2.80;99.90;;;;;;4960908;28;20565;-50
2024/02/26 01:08:08;;;;;;;11.87;7.87;;;2.70;99.90;;;;;;4964946;28;20277;-52
2024/02/26 01:10:34;;;;;;;8.73;7.20;;;2.70;99.90;;;;;;4945836;28;20253;-52
2024/02/26 01:13:02;;;;;;;7.23;6.53;;;2.60;99.90;;;;;;4954236;28;20236;-49
2024/02/26 01:15:29;;;;;;;9.47;7.13;;;2.60;99.90;;;;;;4934150;28;20221;-52
2024/02/26 01:17:56;;;;;;;10.23;7.30;;;2.70;99.90;;;;;;4962352;28;20210;-53
2024/02/26 01:20:23;;;;;;;9.90;7.00;;;2.60;99.90;;;;;;4963934;28;20580;-54
2024/02/26 01:22:50;;;;;;;8.93;7.17;;;2.50;99.90;;;;;;4960837;28;20944;-52
2024/02/26 01:25:18;;;;;;;9.23;6.97;;;2.50;99.90;;;;;;4947865;28;20217;-51
2024/02/26 01:27:45;;;;;;;8.87;6.93;;;2.40;99.90;;;;;;4960822;28;20218;-50
2024/02/26 01:30:16;;;;;;;7.93;6.63;;;2.40;99.90;;;;;;4937629;28;20214;-48
2024/02/26 01:32:42;;;;;;;7.97;6.47;;;2.40;99.90;;;;;;4960840;28;20910;-47
2024/02/26 01:35:11;;;;;;;7.70;6.90;;;2.40;99.90;;;;;;4964196;28;20664;-48
2024/02/26 01:37:38;;;;;;;9.77;7.20;;;2.40;99.90;;;;;;4960849;28;20708;-48
2024/02/26 01:40:06;;;;;;;9.43;7.50;;;2.30;99.90;;;;;;4963714;28;20213;-52
2024/02/26 01:42:35;;;;;;;10.53;6.87;;;2.30;99.90;;;;;;4945091;28;20202;-54
2024/02/26 01:45:02;;;;;;;9.30;7.47;;;2.20;99.90;;;;;;4926806;28;20232;-53
2024/02/26 01:47:30;;;;;;;9.20;7.10;;;2.20;99.90;;;;;;4959931;28;20233;-51
2024/02/26 01:49:57;;;;;;;8.30;7.17;;;2.30;99.90;;;;;;4962068;28;20641;-48
2024/02/26 01:52:24;;;;;;;11.33;7.50;;;2.20;99.90;;;;;;4955088;28;20229;-51
2024/02/26 01:54:51;;;;;;;9.83;7.40;;;2.10;99.90;;;;;;4963718;28;20198;-50
2024/02/26 01:57:18;;;;;;;7.87;7.00;;;2.10;99.90;;;;;;4944457;28;20234;-51
2024/02/26 01:59:47;;;;;;;8.70;7.30;;;2.10;99.90;;;;;;4964133;28;20268;-48
2024/02/26 02:02:16;;;;;;;9.73;7.87;;;2.10;99.90;;;;;;4931894;28;20212;-51
2024/02/26 02:04:44;;;;;;;8.47;7.03;;;2.10;99.90;;;;;;4963560;28;20218;-51
2024/02/26 02:07:11;;;;;;;7.83;6.20;;;2.00;99.90;;;;;;4952915;28;20815;-49
2024/02/26 02:09:38;;;;;;;9.37;7.30;;;2.00;99.90;;;;;;4964373;28;20198;-51
2024/02/26 02:12:06;;;;;;;10.20;7.63;;;2.00;99.90;;;;;;4948192;28;20205;-50
2024/02/26 02:14:33;;;;;;;7.90;6.10;;;2.10;99.90;;;;;;4962164;28;20204;-48
2024/02/26 02:17:01;;;;;;;10.20;7.67;;;2.10;99.90;;;;;;4933989;28;20218;-52
2024/02/26 02:19:28;;;;;;;8.37;7.43;;;2.10;99.90;;;;;;4962297;28;20194;-50
2024/02/26 02:21:56;;;;;;;9.60;7.27;;;2.10;99.90;;;;;;4962572;28;20202;-53
2024/02/26 02:24:23;;;;;;;8.97;7.23;;;2.10;99.90;;;;;;4961481;28;20206;-49
2024/02/26 02:26:51;;;;;;;8.40;7.07;;;2.00;99.90;;;;;;4963683;28;20268;-52
2024/02/26 02:29:17;;;;;;;7.43;6.33;;;2.00;99.90;;;;;;4944349;28;20214;-52
2024/02/26 02:31:44;;;;;;;7.83;7.03;;;2.10;99.90;;;;;;4939496;28;20544;-50
2024/02/26 02:34:11;;;;;;;9.80;7.80;;;2.10;99.90;;;;;;4964143;28;20304;-51
2024/02/26 02:36:50;;;;;;;7.70;6.80;;;2.00;99.90;;;;;;4968274;28;20580;-53
2024/02/26 02:39:18;;;;;;;11.37;7.47;;;1.90;99.90;;;;;;4964266;28;20252;-49
2024/02/26 02:41:45;;;;;;;8.77;7.43;;;1.90;99.90;;;;;;4967632;28;20202;-49
2024/02/26 02:44:12;;;;;;;10.07;8.07;;;1.90;99.90;;;;;;4947432;28;20218;-50
2024/02/26 02:46:39;;;;;;;11.33;8.30;;;1.80;99.90;;;;;;4941224;28;20209;-51
2024/02/26 02:49:09;;;;;;;10.60;7.93;;;1.80;99.90;;;;;;4965511;28;20222;-51
2024/02/26 02:51:36;;;;;;;7.97;7.17;;;1.80;99.90;;;;;;4966366;28;20250;-50
2024/02/26 02:54:02;;;;;;;9.50;7.40;;;1.80;99.90;;;;;;4965660;28;20269;-55
2024/02/26 02:56:31;;;;;;;8.37;7.47;;;1.80;99.90;;;;;;4966201;28;20198;-53
2024/02/26 02:58:57;;;;;;;9.03;7.40;;;1.80;99.90;;;;;;4949682;28;20234;-52
2024/02/26 03:01:24;;;;;;;9.47;7.20;;;1.80;99.90;;;;;;4965348;28;20190;-52
2024/02/26 03:03:51;;;;;;;11.90;7.77;;;1.80;99.90;;;;;;4940060;28;20618;-52
2024/02/26 03:06:18;;;;;;;8.90;7.40;;;1.80;99.90;;;;;;4964402;28;20445;-48
2024/02/26 03:08:45;;;;;;;7.00;6.13;;;1.80;99.90;;;;;;4967420;28;20233;-49
2024/02/26 03:11:14;;;;;;;10.70;7.90;;;1.80;99.90;;;;;;4963073;28;20280;-52
2024/02/26 03:13:43;;;;;;;8.73;6.87;;;1.90;99.90;;;;;;4967153;28;20210;-53
2024/02/26 03:16:10;;;;;;;11.57;7.60;;;1.80;99.90;;;;;;4946907;28;20209;-49
2024/02/26 03:18:39;;;;;;;10.53;8.00;;;1.70;99.90;;;;;;4940072;28;20244;-54
2024/02/26 03:21:05;;;;;;;10.10;6.80;;;1.60;99.90;;;;;;4964346;28;20269;-50
2024/02/26 03:23:36;;;;;;;11.57;7.90;;;1.60;99.90;;;;;;4966509;28;20245;-50
2024/02/26 03:26:03;;;;;;;10.67;8.03;;;1.60;99.90;;;;;;4964338;28;20280;-51
2024/02/26 03:28:30;;;;;;;10.77;7.50;;;1.60;99.90;;;;;;4966026;28;20312;-53
2024/02/26 03:30:58;;;;;;;11.90;8.17;;;1.60;99.90;;;;;;4949247;28;20205;-54
2024/02/26 03:33:25;;;;;;;9.73;7.03;;;1.50;99.90;;;;;;4936256;28;25603;-54
2024/02/26 03:35:52;;;;;;;11.30;7.83;;;1.50;99.90;;;;;;4966775;28;20760;-52
2024/02/26 03:38:19;;;;;;;9.40;7.37;;;1.40;99.90;;;;;;4963373;28;20217;-48
2024/02/26 03:40:46;;;;;;;10.40;7.50;;;1.30;99.90;;;;;;4967224;28;20836;-48
2024/02/26 03:43:13;;;;;;;9.97;7.33;;;1.30;99.90;;;;;;4960695;28;20213;-49
2024/02/26 03:45:40;;;;;;;13.67;8.00;;;1.30;99.90;;;;;;4951055;28;20750;-49
2024/02/26 03:48:08;;;;;;;10.97;7.87;;;1.30;99.90;;;;;;4963438;28;20229;-46
2024/02/26 03:50:35;;;;;;;10.10;7.77;;;1.30;99.90;;;;;;4940500;28;20673;-50
2024/02/26 03:53:02;;;;;;;11.23;7.60;;;1.40;99.90;;;;;;4964016;28;20210;-47
2024/02/26 03:55:29;;;;;;;9.17;7.13;;;1.40;99.90;;;;;;4965171;28;20182;-53
2024/02/26 03:57:56;;;;;;;11.07;7.87;;;1.40;99.90;;;;;;4954580;28;20226;-49
2024/02/26 04:00:23;;;;;;;12.40;8.83;;;1.40;99.90;;;;;;4965370;28;20198;-52
2024/02/26 04:02:50;;;;;;;12.33;8.93;;;1.30;99.90;;;;;;4947969;28;20210;-51
2024/02/26 04:05:18;;;;;;;10.83;8.10;;;1.30;99.90;;;;;;4936972;28;20419;-50
2024/02/26 04:07:45;;;;;;;14.17;9.60;;;1.30;99.90;;;;;;4966011;28;20218;-49
2024/02/26 04:10:14;;;;;;;11.23;9.13;;;1.30;99.90;;;;;;4953599;28;20205;-50
2024/02/26 04:12:41;;;;;;;14.70;10.03;;;1.30;99.90;;;;;;4963456;28;20202;-48
2024/02/26 04:15:09;;;;;;;13.10;9.30;;;1.30;99.90;;;;;;4963304;28;20229;-52
2024/02/26 04:17:37;;;;;;;10.67;7.50;;;1.40;99.90;;;;;;4949301;28;20218;-49
2024/02/26 04:20:06;;;;;;;11.07;7.83;;;1.40;99.90;;;;;;4962964;28;20190;-51
2024/02/26 04:22:34;;;;;;;9.57;8.00;;;1.30;99.90;;;;;;4938044;28;20201;-48
2024/02/26 04:25:01;;;;;;;11.20;8.40;;;1.30;99.90;;;;;;4962466;28;20269;-50
2024/02/26 04:27:28;;;;;;;12.17;8.63;;;1.40;99.90;;;;;;4964220;28;20588;-52
2024/02/26 04:29:55;;;;;;;11.57;8.33;;;1.30;99.90;;;;;;4962191;28;20193;-53
2024/02/26 04:32:22;;;;;;;14.00;9.83;;;1.30;99.90;;;;;;4965402;28;20205;-48
2024/02/26 04:34:49;;;;;;;12.57;9.53;;;1.20;99.90;;;;;;4947168;28;20202;-49
2024/02/26 04:37:15;;;;;;;12.23;9.00;;;1.20;99.90;;;;;;4936499;28;20222;-50
2024/02/26 04:39:44;;;;;;;12.40;9.13;;;1.20;99.90;;;;;;4953283;28;20218;-50
2024/02/26 04:42:11;;;;;;;12.87;9.40;;;1.30;99.90;;;;;;4964720;28;20198;-57
2024/02/26 04:44:37;;;;;;;12.60;9.63;;;1.20;99.90;;;;;;4954092;28;20300;-57
2024/02/26 04:47:04;;;;;;;14.70;10.00;;;1.30;99.90;;;;;;4964300;28;20205;-51
2024/02/26 04:49:31;;;;;;;12.43;9.10;;;1.30;99.90;;;;;;4945775;28;20201;-52
2024/02/26 04:51:58;;;;;;;13.00;8.27;;;1.30;99.90;;;;;;4965321;28;20208;-53
2024/02/26 04:54:25;;;;;;;12.77;9.30;;;1.30;99.90;;;;;;4934859;28;20229;-53
2024/02/26 04:56:53;;;;;;;14.80;10.20;;;1.30;99.90;;;;;;4964336;28;20202;-48
2024/02/26 04:59:19;;;;;;;14.20;10.20;;;1.30;99.90;;;;;;4962360;28;21081;-51
2024/02/26 05:01:46;;;;;;;12.37;9.67;;;1.30;99.90;;;;;;4958734;28;20202;-50
2024/02/26 05:04:13;;;;;;;12.10;9.50;;;1.20;99.90;;;;;;4937726;28;20625;-51
2024/02/26 05:06:40;;;;;;;12.93;9.70;;;1.20;99.90;;;;;;4964913;28;20201;-48
2024/02/26 05:09:07;;;;;;;12.80;9.50;;;1.20;99.90;;;;;;4929383;28;20631;-47
2024/02/26 05:11:35;;;;;;;12.13;9.20;;;1.30;99.90;;;;;;4963409;28;20707;-49
2024/02/26 05:14:03;;;;;;;13.93;10.10;;;1.20;99.90;;;;;;4963228;28;20197;-52
2024/02/26 05:16:31;;;;;;;13.80;10.00;;;1.20;99.90;;;;;;4953719;28;20222;-51
2024/02/26 05:18:57;;;;;;;15.60;9.67;;;1.30;99.90;;;;;;4964872;28;20218;-50
2024/02/26 05:21:24;;;;;;;12.40;9.37;;;1.30;99.90;;;;;;4945115;28;20202;-50
2024/02/26 05:23:51;;;;;;;12.93;9.67;;;1.20;99.90;;;;;;4929469;28;20868;-46
2024/02/26 05:26:22;;;;;;;14.37;9.53;;;1.20;99.90;;;;;;4953994;28;20214;-48
2024/02/26 05:28:49;;;;;;;13.27;9.07;;;1.20;99.90;;;;;;4961223;28;20306;-49
2024/02/26 05:31:18;;;;;;;12.83;9.07;;;1.20;99.90;;;;;;4953648;28;20202;-46
2024/02/26 05:33:44;;;;;;;12.80;9.50;;;1.10;99.90;;;;;;4964430;28;20672;-48
2024/02/26 05:36:18;;;;;;;12.00;9.97;;;1.20;99.90;;;;;;4947554;28;20214;-47
2024/02/26 05:38:46;;;;;;;15.87;10.43;;;1.20;99.90;;;;;;4957391;28;20229;-50
2024/02/26 05:41:13;;;;;;;15.87;10.53;;;1.20;99.90;;;;;;4929901;28;20689;-46
2024/02/26 05:43:40;;;;;;;13.27;9.90;;;1.20;99.90;;;;;;4964812;28;20194;-51
2024/02/26 05:46:07;;;;;;;14.97;11.37;;;1.30;99.90;;;;;;4953856;28;20277;-50
2024/02/26 05:48:35;;;;;;;15.97;10.47;;;1.20;99.90;;;;;;4962871;28;20221;-47
2024/02/26 05:51:02;;;;;;;15.10;10.07;;;1.30;99.90;;;;;;4958425;28;20214;-48
2024/02/26 05:53:29;;;;;;;15.03;10.37;;;1.30;99.90;;;;;;4952596;28;20967;-48
2024/02/26 05:55:57;;;;;;;13.70;10.23;;;1.30;99.90;;;;;;4937837;28;20695;-47
2024/02/26 05:58:23;;;;;;;12.77;9.73;;;1.30;99.90;;;;;;4960478;28;20217;-47
2024/02/26 06:00:50;;;;;;;19.43;12.63;;;1.30;99.90;;;;;;4961231;28;20202;-50
2024/02/26 06:03:17;;;;;;;20.63;11.67;;;1.30;99.90;;;;;;4952216;28;20252;-47
2024/02/26 06:05:45;;;;;;;18.37;12.87;;;1.40;99.90;;;;;;4963987;28;20225;-48
2024/02/26 06:08:12;;;;;;;19.70;12.30;;;1.40;99.90;;;;;;4944279;28;20292;-52
2024/02/26 06:10:40;;;;;;;20.63;12.43;;;1.40;99.90;;;;;;4925960;28;20588;-49
2024/02/26 06:13:06;;;;;;;18.87;11.93;;;1.50;99.90;;;;;;4958665;28;20218;-48
2024/02/26 06:15:33;;;;;;;18.10;13.07;;;1.50;99.90;;;;;;4951660;28;20819;-49
2024/02/26 06:18:00;;;;;;;21.00;11.73;;;1.50;99.90;;;;;;4955922;28;20224;-51
2024/02/26 06:20:27;;;;;;;20.87;12.87;;;1.50;99.90;;;;;;4963660;28;20194;-49
2024/02/26 06:22:55;;;;;;;24.20;13.37;;;1.50;99.90;;;;;;4933865;28;20234;-52
2024/02/26 06:25:22;;;;;;;22.43;14.17;;;1.60;99.90;;;;;;4967793;28;20220;-51
2024/02/26 06:27:50;;;;;;;23.27;13.67;;;1.60;99.90;;;;;;4932073;28;20277;-49
2024/02/26 06:30:17;;;;;;;23.47;14.17;;;1.50;99.90;;;;;;4957012;28;20198;-52
2024/02/26 06:32:43;;;;;;;22.47;13.73;;;1.60;99.90;;;;;;4951617;28;20209;-48
2024/02/26 06:35:11;;;;;;;29.70;14.33;;;1.60;99.90;;;;;;4962616;28;20272;-51
2024/02/26 06:37:38;;;;;;;34.57;14.13;;;1.60;99.90;;;;;;4939191;28;20304;-51
2024/02/26 06:40:07;;;;;;;30.53;14.60;;;1.60;99.90;;;;;;4946933;28;20214;-48
2024/02/26 06:42:34;;;;;;;44.10;14.90;;;1.60;99.90;;;;;;4925233;28;20281;-51
2024/02/26 06:45:01;;;;;;;34.97;14.20;;;1.60;99.90;;;;;;4949097;28;20190;-50
2024/02/26 06:47:28;;;;;;;26.73;14.10;;;1.60;99.90;;;;;;4953917;28;20897;-48
2024/02/26 06:49:57;;;;;;;32.67;13.80;;;1.50;99.90;;;;;;4949615;28;20217;-50
2024/02/26 06:52:25;;;;;;;38.23;13.67;;;1.60;99.90;;;;;;4953445;28;20687;-48
2024/02/26 06:54:52;;;;;;;32.93;12.73;;;1.60;99.90;;;;;;4944608;28;20241;-49
2024/02/26 06:57:20;;;;;;;25.23;13.50;;;1.50;99.90;;;;;;4927958;28;20225;-50
2024/02/26 06:59:47;;;;;;;27.63;13.20;;;1.50;99.90;;;;;;4961951;28;20198;-49
2024/02/26 07:02:16;;;;;;;25.73;12.87;;;1.60;99.90;;;;;;4954491;28;20205;-49
2024/02/26 07:04:42;;;;;;;18.73;12.30;;;1.60;99.90;;;;;;4945686;28;20202;-49
2024/02/26 07:07:10;;;;;;;19.40;11.90;;;1.60;99.90;;;;;;4938160;28;20244;-48
2024/02/26 07:09:37;;;;;;;20.93;12.30;;;1.60;99.90;;;;;;4947363;28;20213;-49
2024/02/26 07:12:04;;;;;;;21.00;12.30;;;1.60;99.90;;;;;;4924876;28;20216;-50
2024/02/26 07:14:33;;;;;;;19.43;12.57;;;1.60;99.90;;;;;;4962680;28;20194;-51
2024/02/26 07:17:00;;;;;;;23.43;13.07;;;1.60;99.90;;;;;;4960019;28;20214;-49
2024/02/26 07:19:27;;;;;;;20.47;12.80;;;1.60;99.90;;;;;;4957429;28;20217;-49
2024/02/26 07:21:54;;;;;;;21.87;12.97;;;1.60;99.90;;;;;;4958974;28;20808;-47
2024/02/26 07:24:20;;;;;;;25.27;14.67;;;1.70;99.90;;;;;;4954829;28;20217;-47
2024/02/26 07:26:47;;;;;;;25.03;12.97;;;1.70;99.90;;;;;;4948660;28;20291;-49
2024/02/26 07:29:14;;;;;;;24.13;13.47;;;1.70;99.90;;;;;;4931427;28;20221;-49
2024/02/26 07:31:42;;;;;;;24.67;12.87;;;1.70;99.90;;;;;;4966209;28;20221;-47
2024/02/26 07:34:09;;;;;;;24.90;12.70;;;1.70;99.90;;;;;;4953348;28;20944;-49
2024/02/26 07:36:36;;;;;;;22.90;13.60;;;1.70;99.90;;;;;;4957424;28;20606;-48
2024/02/26 07:39:02;;;;;;;22.57;12.33;;;1.80;99.90;;;;;;4945847;28;20320;-50
2024/02/26 07:41:29;;;;;;;23.50;12.43;;;1.80;99.90;;;;;;4939987;28;20629;-47
2024/02/26 07:43:56;;;;;;;23.40;12.67;;;1.80;99.90;;;;;;4927803;28;21491;-48
2024/02/26 07:46:23;;;;;;;29.17;13.17;;;1.90;99.90;;;;;;4963848;28;20272;-47
2024/02/26 07:48:51;;;;;;;31.27;12.47;;;1.90;99.90;;;;;;4964010;28;20225;-47
2024/02/26 07:51:19;;;;;;;24.10;12.93;;;1.90;99.90;;;;;;4956717;28;20232;-50
2024/02/26 07:53:46;;;;;;;30.53;11.70;;;2.00;99.90;;;;;;4952831;28;20202;-48
2024/02/26 07:56:12;;;;;;;25.73;13.13;;;2.00;99.90;;;;;;4961338;28;20846;-48
2024/02/26 07:58:39;;;;;;;21.40;11.97;;;2.10;99.90;;;;;;4941905;28;20226;-49
2024/02/26 08:01:06;;;;;;;20.90;12.07;;;2.00;99.90;;;;;;4935454;28;20920;-48
2024/02/26 08:03:33;;;;;;;22.17;11.93;;;2.10;99.90;;;;;;4963745;28;20221;-49
2024/02/26 08:06:02;;;;;;;24.67;12.70;;;2.10;99.90;;;;;;4953609;28;20915;-48
2024/02/26 08:08:28;;;;;;;22.53;11.50;;;2.20;99.90;;;;;;4959452;28;20646;-47
2024/02/26 08:10:55;;;;;;;22.03;12.93;;;2.30;99.90;;;;;;4952683;28;20272;-50
2024/02/26 08:13:22;;;;;;;21.07;12.13;;;2.40;99.90;;;;;;4948583;28;20608;-48
2024/02/26 08:15:49;;;;;;;19.77;11.43;;;2.40;99.90;;;;;;4926611;28;20206;-51
2024/02/26 08:18:16;;;;;;;18.97;11.97;;;2.40;99.90;;;;;;4964070;28;20635;-50
2024/02/26 08:20:42;;;;;;;19.77;11.13;;;2.40;99.90;;;;;;4959416;28;20244;-50
2024/02/26 08:23:11;;;;;;;20.03;11.30;;;2.50;99.90;;;;;;4959793;28;20938;-48
2024/02/26 08:25:38;;;;;;;18.70;11.30;;;2.50;99.90;;;;;;4948577;28;20218;-47
2024/02/26 08:28:05;;;;;;;20.87;12.07;;;2.50;99.90;;;;;;4962150;28;20210;-51
2024/02/26 08:30:32;;;;;;;23.40;12.20;;;2.50;99.90;;;;;;4948649;28;20210;-48
2024/02/26 08:32:59;;;;;;;22.27;12.53;;;2.50;99.90;;;;;;4933593;28;20210;-50
2024/02/26 08:35:26;;;;;;;17.97;11.10;;;2.50;99.90;;;;;;4965342;28;20201;-47
2024/02/26 08:37:53;;;;;;;19.00;11.83;;;2.60;99.90;;;;;;4951760;28;20225;-49
2024/02/26 08:40:21;;;;;;;18.23;10.97;;;2.60;99.90;;;;;;4958949;28;20664;-50
2024/02/26 08:42:48;;;;;;;22.17;11.97;;;2.70;99.90;;;;;;4953161;28;20230;-51
2024/02/26 08:45:15;;;;;;;21.57;12.77;;;2.70;99.90;;;;;;4945851;28;20206;-48
2024/02/26 08:47:42;;;;;;;19.13;11.53;;;2.80;99.90;;;;;;4932847;28;20229;-49
2024/02/26 08:50:11;;;;;;;20.43;11.90;;;2.80;99.90;;;;;;4960440;28;20927;-49
2024/02/26 08:52:38;;;;;;;21.63;11.50;;;2.80;99.90;;;;;;4953739;28;20202;-49
2024/02/26 08:55:06;;;;;;;19.87;11.60;;;2.80;99.90;;;;;;4955190;28;20201;-48
2024/02/26 08:57:34;;;;;;;22.27;11.83;;;2.80;99.90;;;;;;4965736;28;20221;-48
2024/02/26 09:00:01;;;;;;;17.93;11.23;;;2.80;99.90;;;;;;4944926;28;20292;-47
2024/02/26 09:02:28;;;;;;;20.70;12.30;;;2.90;99.90;;;;;;4963944;28;20198;-48
2024/02/26 09:04:55;;;;;;;20.00;11.13;;;2.90;99.90;;;;;;4933492;28;20226;-47
2024/02/26 09:07:22;;;;;;;22.20;12.53;;;2.90;99.90;;;;;;4963725;28;20601;-49
2024/02/26 09:09:49;;;;;;;20.97;12.57;;;3.00;99.90;;;;;;4946076;28;20232;-48
2024/02/26 09:12:16;;;;;;;24.27;12.37;;;3.10;99.90;;;;;;4977006;28;20587;-50
2024/02/26 09:14:44;;;;;;;28.67;13.53;;;3.10;99.90;;;;;;4956235;28;20201;-51
2024/02/26 09:17:11;;;;;;;25.20;13.33;;;3.20;99.90;;;;;;4956303;28;20249;-51
2024/02/26 09:19:38;;;;;;;23.20;13.60;;;3.20;99.90;;;;;;4934984;28;20276;-50
2024/02/26 09:22:05;;;;;;;24.87;13.20;;;3.30;99.90;;;;;;4961352;28;20198;-49
2024/02/26 09:24:32;;;;;;;24.73;13.33;;;3.30;99.90;;;;;;4955368;28;20209;-50
2024/02/26 09:26:59;;;;;;;22.73;12.40;;;3.30;99.90;;;;;;4952145;28;20253;-49
2024/02/26 09:29:27;;;;;;;25.17;14.17;;;3.40;99.90;;;;;;4962286;28;20290;-49
2024/02/26 09:31:55;;;;;;;23.83;12.73;;;3.40;99.90;;;;;;4942648;28;20512;-50
2024/02/26 09:34:22;;;;;;;27.90;13.87;;;3.50;99.90;;;;;;4935344;28;20209;-49
2024/02/26 09:36:49;;;;;;;30.53;14.57;;;3.60;99.90;;;;;;4961452;28;20244;-50
2024/02/26 09:39:21;;;;;;;28.70;14.10;;;3.60;99.90;;;;;;4962984;28;20251;-48
2024/02/26 09:41:48;;;;;;;29.90;15.03;;;3.70;99.90;;;;;;4948645;28;20210;-52
2024/02/26 09:44:21;;;;;;;27.37;13.93;;;3.80;99.90;;;;;;4959366;28;20673;-49
2024/02/26 09:46:49;;;;;;;25.10;13.40;;;3.80;99.90;;;;;;4943851;28;20230;-48
2024/02/26 09:49:19;;;;;;;24.83;13.03;;;3.80;99.90;;;;;;4948715;28;20759;-50
2024/02/26 09:51:48;;;;;;;30.90;14.40;;;3.90;99.90;;;;;;4938904;28;20213;-50
2024/02/26 09:54:16;;;;;;;24.87;13.40;;;3.90;99.90;;;;;;4960467;28;20233;-53
2024/02/26 09:56:44;;;;;;;26.13;13.57;;;3.90;99.90;;;;;;4952515;28;20775;-49
2024/02/26 09:59:16;;;;;;;22.07;12.43;;;3.90;99.90;;;;;;4956805;28;20240;-50
2024/02/26 10:01:45;;;;;;;26.60;13.80;;;3.90;99.90;;;;;;4945204;28;20299;-49
2024/02/26 10:04:13;;;;;;;26.43;13.87;;;4.00;99.90;;;;;;4964790;28;20257;-54
2024/02/26 10:06:44;;;;;;;27.23;14.03;;;4.00;99.90;;;;;;4933189;28;20226;-49
2024/02/26 10:09:12;;;;;;;24.93;13.03;;;4.10;99.90;;;;;;4960168;28;20218;-53
2024/02/26 10:11:39;;;;;;;23.87;13.27;;;4.10;99.90;;;;;;4951950;28;20194;-47
2024/02/26 10:14:06;;;;;;;25.63;13.47;;;4.10;99.90;;;;;;4958568;28;20337;-51
2024/02/26 10:16:34;;;;;;;25.30;13.97;;;4.20;99.90;;;;;;4942727;28;20851;-48
2024/02/26 10:19:01;;;;;;;26.67;13.63;;;4.30;99.90;;;;;;4963886;28;20214;-49
2024/02/26 10:21:28;;;;;;;24.80;13.10;;;4.40;99.90;;;;;;4931974;28;20199;-48
2024/02/26 10:23:56;;;;;;;24.93;13.87;;;4.40;99.90;;;;;;4964243;28;20248;-48
2024/02/26 10:26:23;;;;;;;23.77;12.90;;;4.40;99.90;;;;;;4952683;28;20206;-52
2024/02/26 10:28:50;;;;;;;22.47;13.40;;;4.50;99.90;;;;;;4960302;28;20222;-51
2024/02/26 10:31:17;;;;;;;22.33;13.20;;;4.50;99.90;;;;;;4945182;28;20198;-49
2024/02/26 10:33:44;;;;;;;25.60;13.93;;;4.50;99.90;;;;;;4956757;28;20213;-48
2024/02/26 10:36:12;;;;;;;28.70;14.93;;;4.60;99.90;;;;;;4935573;28;20277;-53
2024/02/26 10:38:39;;;;;;;22.67;14.10;;;4.70;99.90;;;;;;4961320;28;20229;-49
2024/02/26 10:41:09;;;;;;;21.97;13.00;;;4.60;99.90;;;;;;4963777;28;20206;-48
2024/02/26 10:43:36;;;;;;;27.23;14.57;;;4.80;99.90;;;;;;4951107;28;20218;-46
2024/02/26 10:46:03;;;;;;;24.43;13.90;;;4.70;99.90;;;;;;4954970;28;20630;-51
2024/02/26 10:48:30;;;;;;;26.00;14.60;;;4.90;99.90;;;;;;4943197;28;20930;-47
2024/02/26 10:50:58;;;;;;;25.47;14.90;;;4.90;99.90;;;;;;4963949;28;20190;-47
2024/02/26 10:53:28;;;;;;;25.70;14.73;;;5.00;99.90;;;;;;4934510;28;20261;-51
2024/02/26 10:56:04;;;;;;;24.63;14.97;;;5.00;99.90;;;;;;4966761;28;20194;-51
2024/02/26 10:58:32;;;;;;;26.03;15.70;;;5.10;99.90;;;;;;4954178;28;21672;-50
2024/02/26 11:01:00;;;;;;;23.67;14.20;;;5.20;99.90;;;;;;4960522;28;20656;-48
2024/02/26 11:03:31;;;;;;;24.50;13.80;;;5.30;99.90;;;;;;4946242;28;20206;-47
2024/02/26 11:05:59;;;;;;;24.77;14.83;;;5.40;99.90;;;;;;4967739;28;20198;-49
2024/02/26 11:08:27;;;;;;;28.17;15.37;;;5.50;99.90;;;;;;4931774;28;20932;-48
2024/02/26 11:10:56;;;;;;;24.07;14.27;;;5.50;99.90;;;;;;4965675;28;20554;-48
2024/02/26 11:13:25;;;;;;;23.87;14.90;;;5.70;99.90;;;;;;4962850;28;20213;-53
2024/02/26 11:15:55;;;;;;;24.77;14.83;;;5.80;99.90;;;;;;4957337;28;20202;-47
2024/02/26 11:18:27;;;;;;;24.13;14.17;;;5.90;99.90;;;;;;4940309;28;20308;-50
2024/02/26 11:20:57;;;;;;;21.67;14.40;;;5.90;99.90;;;;;;4966660;28;20190;-51
2024/02/26 11:23:23;;;;;;;20.67;13.60;;;6.00;99.90;;;;;;4936463;28;20444;-50
2024/02/26 11:25:53;;;;;;;19.57;13.40;;;6.10;99.90;;;;;;4955021;28;20213;-47
2024/02/26 11:28:21;;;;;;;18.33;12.87;;;6.20;99.90;;;;;;4963384;28;20411;-51
2024/02/26 11:30:50;;;;;;;19.50;13.20;;;6.30;99.90;;;;;;4959221;28;20601;-49
2024/02/26 11:33:20;;;;;;;19.17;13.83;;;6.40;99.90;;;;;;4939696;28;20198;-51
2024/02/26 11:35:47;;;;;;;22.13;13.63;;;6.40;99.90;;;;;;4967180;28;20225;-46
2024/02/26 11:38:21;;;;;;;18.87;13.30;;;6.40;99.90;;;;;;4935848;28;20214;-48
2024/02/26 11:40:49;;;;;;;19.37;13.27;;;6.50;99.90;;;;;;4954655;28;20752;-50
2024/02/26 11:43:15;;;;;;;18.23;12.00;;;6.60;99.90;;;;;;4963821;28;20194;-48
2024/02/26 11:45:51;;;;;;;20.43;13.60;;;6.60;99.90;;;;;;4965851;28;20235;-47
2024/02/26 11:48:24;;;;;;;18.97;13.00;;;6.60;99.90;;;;;;4937000;28;20234;-48
2024/02/26 11:50:53;;;;;;;21.30;13.23;;;6.50;99.90;;;;;;4963593;28;20201;-51
2024/02/26 11:53:23;;;;;;;18.37;12.70;;;6.50;99.90;;;;;;4960601;28;20216;-50
2024/02/26 11:56:21;;;;;;;17.40;11.70;;;6.50;99.90;;;;;;4924879;28;23039;-51
2024/02/26 11:58:49;;;;;;;18.60;12.27;;;6.30;99.90;;;;;;4963305;28;20218;-51
2024/02/26 12:01:42;;;;;;;18.93;12.57;;;6.30;99.90;;;;;;4963586;28;20204;-54
2024/02/26 12:04:14;;;;;;;18.77;12.77;;;6.30;99.90;;;;;;4946375;28;20685;-49
2024/02/26 12:06:46;;;;;;;17.70;12.77;;;6.20;99.90;;;;;;4964264;28;20904;-54
2024/02/26 12:09:14;;;;;;;20.13;12.30;;;6.20;99.90;;;;;;4965042;28;20221;-47
2024/02/26 12:11:42;;;;;;;19.60;12.97;;;6.10;99.90;;;;;;4926587;28;20204;-47
2024/02/26 12:14:10;;;;;;;15.67;11.73;;;6.00;99.90;;;;;;4965659;28;20716;-53
2024/02/26 12:16:38;;;;;;;15.90;11.00;;;6.00;99.90;;;;;;4963281;28;20257;-53
2024/02/26 12:19:06;;;;;;;18.17;11.70;;;6.00;99.90;;;;;;4941666;28;20233;-48
2024/02/26 12:21:36;;;;;;;17.23;11.30;;;6.10;99.90;;;;;;4963509;28;20210;-52
2024/02/26 12:24:15;;;;;;;19.27;10.80;;;6.10;99.90;;;;;;4966018;28;20200;-48
2024/02/26 12:26:42;;;;;;;16.77;11.57;;;6.10;99.90;;;;;;4929949;28;20209;-50
2024/02/26 12:29:10;;;;;;;17.43;11.37;;;6.10;99.90;;;;;;4962024;28;20225;-50
2024/02/26 12:31:38;;;;;;;15.00;11.47;;;6.10;99.90;;;;;;4962325;28;20195;-51
2024/02/26 12:34:05;;;;;;;15.97;10.67;;;6.20;99.90;;;;;;4949942;28;20703;-48
2024/02/26 12:36:34;;;;;;;17.00;12.03;;;6.10;99.90;;;;;;4963334;28;20206;-54
2024/02/26 12:39:05;;;;;;;19.13;11.33;;;6.10;99.90;;;;;;4965483;28;20237;-48
2024/02/26 12:41:32;;;;;;;17.93;10.40;;;6.00;99.90;;;;;;4926118;28;20213;-54
2024/02/26 12:44:00;;;;;;;19.77;11.90;;;6.10;99.90;;;;;;4963780;28;20677;-47
2024/02/26 12:46:27;;;;;;;17.63;10.97;;;6.00;99.90;;;;;;4960325;28;20206;-52